sensor_id;sensor_type;location;lat;lon;timestamp;P1;durP1;ratioP1;P2;durP2;ratioP2
44254;SDS011;29933;47.226;15.734;2022-12-07T00:01:21;4.03;;;3.55;;
44254;SDS011;29933;47.226;15.734;2022-12-07T00:03:53;5.45;;;4.13;;
44254;SDS011;29933;47.226;15.734;2022-12-07T00:06:25;8.07;;;3.60;;
44254;SDS011;29933;47.226;15.734;2022-12-07T00:08:51;5.13;;;3.65;;
44254;SDS011;29933;47.226;15.734;2022-12-07T00:11:18;8.02;;;3.25;;
44254;SDS011;29933;47.226;15.734;2022-12-07T00:13:47;6.05;;;3.80;;
44254;SDS011;29933;47.226;15.734;2022-12-07T00:16:21;4.72;;;3.03;;
44254;SDS011;29933;47.226;15.734;2022-12-07T00:18:49;5.50;;;2.73;;
44254;SDS011;29933;47.226;15.734;2022-12-07T00:21:16;4.88;;;3.53;;
44254;SDS011;29933;47.226;15.734;2022-12-07T00:23:51;5.32;;;3.15;;
44254;SDS011;29933;47.226;15.734;2022-12-07T00:26:25;7.13;;;3.08;;
44254;SDS011;29933;47.226;15.734;2022-12-07T00:28:54;4.45;;;2.70;;
44254;SDS011;29933;47.226;15.734;2022-12-07T00:31:24;3.55;;;2.95;;
44254;SDS011;29933;47.226;15.734;2022-12-07T00:33:58;2.92;;;2.70;;
44254;SDS011;29933;47.226;15.734;2022-12-07T00:36:24;3.90;;;2.78;;
44254;SDS011;29933;47.226;15.734;2022-12-07T00:38:50;3.35;;;2.50;;
44254;SDS011;29933;47.226;15.734;2022-12-07T00:41:18;11.20;;;2.85;;
44254;SDS011;29933;47.226;15.734;2022-12-07T00:43:49;4.85;;;2.03;;
44254;SDS011;29933;47.226;15.734;2022-12-07T00:46:16;2.42;;;2.17;;
44254;SDS011;29933;47.226;15.734;2022-12-07T00:48:44;3.42;;;2.45;;
44254;SDS011;29933;47.226;15.734;2022-12-07T00:51:11;3.05;;;1.85;;
44254;SDS011;29933;47.226;15.734;2022-12-07T00:53:38;3.90;;;2.15;;
44254;SDS011;29933;47.226;15.734;2022-12-07T00:56:08;2.50;;;1.65;;
44254;SDS011;29933;47.226;15.734;2022-12-07T00:58:43;2.28;;;1.70;;
44254;SDS011;29933;47.226;15.734;2022-12-07T01:01:15;2.08;;;1.42;;
44254;SDS011;29933;47.226;15.734;2022-12-07T01:03:41;3.28;;;1.55;;
44254;SDS011;29933;47.226;15.734;2022-12-07T01:06:07;4.53;;;2.40;;
44254;SDS011;29933;47.226;15.734;2022-12-07T01:08:32;4.10;;;2.13;;
44254;SDS011;29933;47.226;15.734;2022-12-07T01:11:06;4.78;;;3.40;;
44254;SDS011;29933;47.226;15.734;2022-12-07T01:13:35;4.05;;;2.97;;
44254;SDS011;29933;47.226;15.734;2022-12-07T01:16:02;10.70;;;2.80;;
44254;SDS011;29933;47.226;15.734;2022-12-07T01:18:30;3.80;;;2.58;;
44254;SDS011;29933;47.226;15.734;2022-12-07T01:21:00;5.80;;;3.65;;
44254;SDS011;29933;47.226;15.734;2022-12-07T01:23:32;4.03;;;2.88;;
44254;SDS011;29933;47.226;15.734;2022-12-07T01:26:00;4.15;;;2.95;;
44254;SDS011;29933;47.226;15.734;2022-12-07T01:28:30;7.82;;;5.05;;
44254;SDS011;29933;47.226;15.734;2022-12-07T01:31:00;28.23;;;5.40;;
44254;SDS011;29933;47.226;15.734;2022-12-07T01:33:33;26.15;;;5.32;;
44254;SDS011;29933;47.226;15.734;2022-12-07T01:36:05;60.63;;;7.28;;
44254;SDS011;29933;47.226;15.734;2022-12-07T01:38:45;28.58;;;5.95;;
44254;SDS011;29933;47.226;15.734;2022-12-07T01:41:13;47.25;;;7.03;;
44254;SDS011;29933;47.226;15.734;2022-12-07T01:44:23;32.88;;;5.68;;
44254;SDS011;29933;47.226;15.734;2022-12-07T01:46:51;32.58;;;6.00;;
44254;SDS011;29933;47.226;15.734;2022-12-07T01:54:53;46.20;;;5.78;;
44254;SDS011;29933;47.226;15.734;2022-12-07T01:57:42;16.98;;;4.63;;
44254;SDS011;29933;47.226;15.734;2022-12-07T02:00:16;31.38;;;5.45;;
44254;SDS011;29933;47.226;15.734;2022-12-07T02:02:44;21.52;;;4.78;;
44254;SDS011;29933;47.226;15.734;2022-12-07T02:05:14;73.43;;;7.22;;
44254;SDS011;29933;47.226;15.734;2022-12-07T02:07:42;48.85;;;6.57;;
44254;SDS011;29933;47.226;15.734;2022-12-07T02:12:45;72.13;;;6.57;;
44254;SDS011;29933;47.226;15.734;2022-12-07T02:15:20;92.53;;;7.70;;
44254;SDS011;29933;47.226;15.734;2022-12-07T02:17:59;104.18;;;8.30;;
44254;SDS011;29933;47.226;15.734;2022-12-07T02:29:40;23.27;;;7.97;;
44254;SDS011;29933;47.226;15.734;2022-12-07T02:38:29;4.30;;;3.45;;
44254;SDS011;29933;47.226;15.734;2022-12-07T02:41:13;5.40;;;3.90;;
44254;SDS011;29933;47.226;15.734;2022-12-07T02:44:04;4.57;;;3.47;;
44254;SDS011;29933;47.226;15.734;2022-12-07T02:46:39;5.00;;;3.70;;
44254;SDS011;29933;47.226;15.734;2022-12-07T02:49:09;5.38;;;3.85;;
44254;SDS011;29933;47.226;15.734;2022-12-07T02:51:40;6.28;;;3.65;;
44254;SDS011;29933;47.226;15.734;2022-12-07T02:54:11;3.58;;;3.28;;
44254;SDS011;29933;47.226;15.734;2022-12-07T03:02:25;3.92;;;2.90;;
44254;SDS011;29933;47.226;15.734;2022-12-07T03:05:20;4.40;;;3.08;;
44254;SDS011;29933;47.226;15.734;2022-12-07T03:11:03;5.43;;;3.30;;
44254;SDS011;29933;47.226;15.734;2022-12-07T03:16:30;17.38;;;6.22;;
44254;SDS011;29933;47.226;15.734;2022-12-07T03:19:19;10.32;;;4.68;;
44254;SDS011;29933;47.226;15.734;2022-12-07T03:24:24;14.93;;;5.32;;
44254;SDS011;29933;47.226;15.734;2022-12-07T03:27:15;9.77;;;5.45;;
44254;SDS011;29933;47.226;15.734;2022-12-07T03:29:48;7.95;;;4.95;;
44254;SDS011;29933;47.226;15.734;2022-12-07T03:32:25;7.65;;;4.82;;
44254;SDS011;29933;47.226;15.734;2022-12-07T03:34:59;7.05;;;4.13;;
44254;SDS011;29933;47.226;15.734;2022-12-07T03:37:39;7.75;;;4.57;;
44254;SDS011;29933;47.226;15.734;2022-12-07T03:40:33;8.82;;;3.60;;
44254;SDS011;29933;47.226;15.734;2022-12-07T03:43:07;7.15;;;4.13;;
44254;SDS011;29933;47.226;15.734;2022-12-07T03:45:43;2.08;;;1.50;;
44254;SDS011;29933;47.226;15.734;2022-12-07T03:48:28;2.20;;;1.08;;
44254;SDS011;29933;47.226;15.734;2022-12-07T03:51:26;1.95;;;1.33;;
44254;SDS011;29933;47.226;15.734;2022-12-07T03:54:36;5.40;;;2.70;;
44254;SDS011;29933;47.226;15.734;2022-12-07T03:57:01;0.98;;;0.88;;
44254;SDS011;29933;47.226;15.734;2022-12-07T03:59:28;1.17;;;0.77;;
44254;SDS011;29933;47.226;15.734;2022-12-07T04:01:56;1.60;;;0.82;;
44254;SDS011;29933;47.226;15.734;2022-12-07T04:04:28;1.00;;;0.90;;
44254;SDS011;29933;47.226;15.734;2022-12-07T04:06:54;1.40;;;1.00;;
44254;SDS011;29933;47.226;15.734;2022-12-07T04:09:20;1.73;;;1.38;;
44254;SDS011;29933;47.226;15.734;2022-12-07T04:11:47;2.28;;;1.58;;
44254;SDS011;29933;47.226;15.734;2022-12-07T04:14:13;2.63;;;2.22;;
44254;SDS011;29933;47.226;15.734;2022-12-07T04:19:23;3.47;;;2.00;;
44254;SDS011;29933;47.226;15.734;2022-12-07T04:21:57;2.58;;;2.38;;
44254;SDS011;29933;47.226;15.734;2022-12-07T04:24:24;4.57;;;3.05;;
44254;SDS011;29933;47.226;15.734;2022-12-07T04:26:51;3.47;;;2.65;;
44254;SDS011;29933;47.226;15.734;2022-12-07T04:29:17;3.60;;;2.97;;
44254;SDS011;29933;47.226;15.734;2022-12-07T04:31:44;5.28;;;2.95;;
44254;SDS011;29933;47.226;15.734;2022-12-07T04:34:10;5.85;;;3.75;;
44254;SDS011;29933;47.226;15.734;2022-12-07T04:36:38;5.40;;;4.03;;
44254;SDS011;29933;47.226;15.734;2022-12-07T04:39:05;3.28;;;2.38;;
44254;SDS011;29933;47.226;15.734;2022-12-07T04:41:48;5.75;;;4.45;;
44254;SDS011;29933;47.226;15.734;2022-12-07T04:44:14;2.33;;;2.03;;
44254;SDS011;29933;47.226;15.734;2022-12-07T04:46:42;1.92;;;1.02;;
44254;SDS011;29933;47.226;15.734;2022-12-07T04:49:08;4.65;;;0.80;;
44254;SDS011;29933;47.226;15.734;2022-12-07T04:51:35;2.75;;;1.20;;
44254;SDS011;29933;47.226;15.734;2022-12-07T04:54:01;1.45;;;1.08;;
44254;SDS011;29933;47.226;15.734;2022-12-07T04:56:28;3.55;;;1.60;;
44254;SDS011;29933;47.226;15.734;2022-12-07T04:58:54;2.53;;;1.45;;
44254;SDS011;29933;47.226;15.734;2022-12-07T05:01:20;2.90;;;2.13;;
44254;SDS011;29933;47.226;15.734;2022-12-07T05:03:47;3.45;;;2.78;;
44254;SDS011;29933;47.226;15.734;2022-12-07T05:06:13;4.70;;;3.75;;
44254;SDS011;29933;47.226;15.734;2022-12-07T05:08:40;6.00;;;3.60;;
44254;SDS011;29933;47.226;15.734;2022-12-07T05:11:07;4.40;;;3.70;;
44254;SDS011;29933;47.226;15.734;2022-12-07T05:13:35;4.35;;;3.88;;
44254;SDS011;29933;47.226;15.734;2022-12-07T05:16:01;5.25;;;3.35;;
44254;SDS011;29933;47.226;15.734;2022-12-07T05:18:27;3.75;;;3.38;;
44254;SDS011;29933;47.226;15.734;2022-12-07T05:20:53;5.93;;;3.65;;
44254;SDS011;29933;47.226;15.734;2022-12-07T05:23:19;4.10;;;3.70;;
44254;SDS011;29933;47.226;15.734;2022-12-07T05:25:45;5.25;;;3.42;;
44254;SDS011;29933;47.226;15.734;2022-12-07T05:28:11;6.60;;;4.15;;
44254;SDS011;29933;47.226;15.734;2022-12-07T05:30:37;3.67;;;3.30;;
44254;SDS011;29933;47.226;15.734;2022-12-07T05:33:03;5.85;;;4.03;;
44254;SDS011;29933;47.226;15.734;2022-12-07T05:35:30;4.38;;;3.95;;
44254;SDS011;29933;47.226;15.734;2022-12-07T05:37:56;5.30;;;4.80;;
44254;SDS011;29933;47.226;15.734;2022-12-07T05:40:22;6.70;;;4.53;;
44254;SDS011;29933;47.226;15.734;2022-12-07T05:42:48;5.43;;;4.88;;
44254;SDS011;29933;47.226;15.734;2022-12-07T05:45:14;6.68;;;4.55;;
44254;SDS011;29933;47.226;15.734;2022-12-07T05:47:39;5.85;;;4.82;;
44254;SDS011;29933;47.226;15.734;2022-12-07T05:50:06;7.05;;;4.18;;
44254;SDS011;29933;47.226;15.734;2022-12-07T05:52:32;5.57;;;4.53;;
44254;SDS011;29933;47.226;15.734;2022-12-07T05:54:58;5.47;;;3.60;;
44254;SDS011;29933;47.226;15.734;2022-12-07T05:57:24;5.88;;;5.03;;
44254;SDS011;29933;47.226;15.734;2022-12-07T05:59:50;3.72;;;3.30;;
44254;SDS011;29933;47.226;15.734;2022-12-07T06:02:16;5.13;;;4.43;;
44254;SDS011;29933;47.226;15.734;2022-12-07T06:04:43;4.55;;;4.03;;
44254;SDS011;29933;47.226;15.734;2022-12-07T06:07:12;4.50;;;3.78;;
44254;SDS011;29933;47.226;15.734;2022-12-07T06:09:41;5.43;;;4.13;;
44254;SDS011;29933;47.226;15.734;2022-12-07T06:12:09;18.83;;;4.97;;
44254;SDS011;29933;47.226;15.734;2022-12-07T06:14:56;16.27;;;4.93;;
44254;SDS011;29933;47.226;15.734;2022-12-07T06:17:22;11.90;;;4.88;;
44254;SDS011;29933;47.226;15.734;2022-12-07T06:19:49;10.75;;;4.30;;
44254;SDS011;29933;47.226;15.734;2022-12-07T06:22:15;4.95;;;3.40;;
44254;SDS011;29933;47.226;15.734;2022-12-07T06:24:42;12.48;;;4.28;;
44254;SDS011;29933;47.226;15.734;2022-12-07T06:27:09;4.32;;;3.92;;
44254;SDS011;29933;47.226;15.734;2022-12-07T06:29:35;6.00;;;4.03;;
44254;SDS011;29933;47.226;15.734;2022-12-07T06:32:02;5.97;;;3.88;;
44254;SDS011;29933;47.226;15.734;2022-12-07T06:34:29;17.40;;;4.18;;
44254;SDS011;29933;47.226;15.734;2022-12-07T06:36:54;5.57;;;3.83;;
44254;SDS011;29933;47.226;15.734;2022-12-07T06:39:22;18.95;;;4.72;;
44254;SDS011;29933;47.226;15.734;2022-12-07T06:41:50;16.48;;;5.50;;
44254;SDS011;29933;47.226;15.734;2022-12-07T06:44:17;16.65;;;5.22;;
44254;SDS011;29933;47.226;15.734;2022-12-07T06:46:44;6.00;;;4.00;;
44254;SDS011;29933;47.226;15.734;2022-12-07T06:49:09;15.40;;;4.20;;
44254;SDS011;29933;47.226;15.734;2022-12-07T06:51:35;11.32;;;4.95;;
44254;SDS011;29933;47.226;15.734;2022-12-07T06:54:05;5.22;;;4.07;;
44254;SDS011;29933;47.226;15.734;2022-12-07T06:56:33;7.85;;;4.72;;
44254;SDS011;29933;47.226;15.734;2022-12-07T06:58:59;5.75;;;3.65;;
44254;SDS011;29933;47.226;15.734;2022-12-07T07:01:25;5.35;;;3.90;;
44254;SDS011;29933;47.226;15.734;2022-12-07T07:03:50;5.32;;;4.28;;
44254;SDS011;29933;47.226;15.734;2022-12-07T07:06:17;5.47;;;4.55;;
44254;SDS011;29933;47.226;15.734;2022-12-07T07:08:43;5.28;;;4.10;;
44254;SDS011;29933;47.226;15.734;2022-12-07T07:11:09;5.88;;;4.32;;
44254;SDS011;29933;47.226;15.734;2022-12-07T07:13:35;7.55;;;5.30;;
44254;SDS011;29933;47.226;15.734;2022-12-07T07:16:02;6.28;;;4.25;;
44254;SDS011;29933;47.226;15.734;2022-12-07T07:18:28;9.68;;;5.72;;
44254;SDS011;29933;47.226;15.734;2022-12-07T07:20:54;4.93;;;4.40;;
44254;SDS011;29933;47.226;15.734;2022-12-07T07:23:20;5.40;;;4.30;;
44254;SDS011;29933;47.226;15.734;2022-12-07T07:25:47;6.60;;;5.63;;
44254;SDS011;29933;47.226;15.734;2022-12-07T07:28:13;5.50;;;4.10;;
44254;SDS011;29933;47.226;15.734;2022-12-07T07:30:40;4.00;;;3.17;;
44254;SDS011;29933;47.226;15.734;2022-12-07T07:33:06;4.60;;;3.80;;
44254;SDS011;29933;47.226;15.734;2022-12-07T07:35:34;4.32;;;4.03;;
44254;SDS011;29933;47.226;15.734;2022-12-07T07:38:00;4.43;;;4.03;;
44254;SDS011;29933;47.226;15.734;2022-12-07T07:40:26;8.60;;;5.78;;
44254;SDS011;29933;47.226;15.734;2022-12-07T07:42:56;8.68;;;5.50;;
44254;SDS011;29933;47.226;15.734;2022-12-07T07:45:23;8.65;;;5.90;;
44254;SDS011;29933;47.226;15.734;2022-12-07T07:47:50;5.82;;;4.95;;
44254;SDS011;29933;47.226;15.734;2022-12-07T07:50:17;9.13;;;5.80;;
44254;SDS011;29933;47.226;15.734;2022-12-07T07:52:43;8.98;;;4.30;;
44254;SDS011;29933;47.226;15.734;2022-12-07T07:55:10;6.97;;;5.03;;
44254;SDS011;29933;47.226;15.734;2022-12-07T07:57:37;7.13;;;5.60;;
44254;SDS011;29933;47.226;15.734;2022-12-07T08:00:05;5.70;;;4.57;;
44254;SDS011;29933;47.226;15.734;2022-12-07T08:02:37;5.07;;;4.43;;
44254;SDS011;29933;47.226;15.734;2022-12-07T08:05:03;3.95;;;3.38;;
44254;SDS011;29933;47.226;15.734;2022-12-07T08:07:29;5.75;;;3.47;;
44254;SDS011;29933;47.226;15.734;2022-12-07T08:09:55;7.32;;;4.72;;
44254;SDS011;29933;47.226;15.734;2022-12-07T08:12:21;5.07;;;4.57;;
44254;SDS011;29933;47.226;15.734;2022-12-07T08:14:47;5.53;;;4.93;;
44254;SDS011;29933;47.226;15.734;2022-12-07T08:17:13;6.78;;;4.80;;
44254;SDS011;29933;47.226;15.734;2022-12-07T08:19:38;7.18;;;5.20;;
44254;SDS011;29933;47.226;15.734;2022-12-07T08:22:04;6.47;;;5.63;;
44254;SDS011;29933;47.226;15.734;2022-12-07T08:24:32;12.07;;;9.55;;
44254;SDS011;29933;47.226;15.734;2022-12-07T08:27:00;37.83;;;17.10;;
44254;SDS011;29933;47.226;15.734;2022-12-07T08:29:26;33.65;;;16.55;;
44254;SDS011;29933;47.226;15.734;2022-12-07T08:31:51;10.25;;;6.72;;
44254;SDS011;29933;47.226;15.734;2022-12-07T08:34:17;5.78;;;4.22;;
44254;SDS011;29933;47.226;15.734;2022-12-07T08:36:43;6.95;;;4.57;;
44254;SDS011;29933;47.226;15.734;2022-12-07T08:39:09;5.30;;;4.20;;
44254;SDS011;29933;47.226;15.734;2022-12-07T08:41:35;7.10;;;5.35;;
44254;SDS011;29933;47.226;15.734;2022-12-07T08:44:02;5.78;;;4.90;;
44254;SDS011;29933;47.226;15.734;2022-12-07T08:49:05;8.27;;;5.60;;
44254;SDS011;29933;47.226;15.734;2022-12-07T08:51:45;5.07;;;4.47;;
44254;SDS011;29933;47.226;15.734;2022-12-07T08:54:13;5.20;;;4.28;;
44254;SDS011;29933;47.226;15.734;2022-12-07T08:56:42;6.57;;;5.25;;
44254;SDS011;29933;47.226;15.734;2022-12-07T08:59:10;6.88;;;4.70;;
44254;SDS011;29933;47.226;15.734;2022-12-07T09:01:37;5.50;;;4.53;;
44254;SDS011;29933;47.226;15.734;2022-12-07T09:04:03;7.45;;;5.15;;
44254;SDS011;29933;47.226;15.734;2022-12-07T09:06:30;5.70;;;5.20;;
44254;SDS011;29933;47.226;15.734;2022-12-07T09:08:57;5.50;;;3.90;;
44254;SDS011;29933;47.226;15.734;2022-12-07T09:11:26;6.68;;;4.00;;
44254;SDS011;29933;47.226;15.734;2022-12-07T09:13:52;6.15;;;5.22;;
44254;SDS011;29933;47.226;15.734;2022-12-07T09:16:18;6.60;;;5.20;;
44254;SDS011;29933;47.226;15.734;2022-12-07T09:18:44;5.90;;;4.95;;
44254;SDS011;29933;47.226;15.734;2022-12-07T09:21:10;6.60;;;5.85;;
44254;SDS011;29933;47.226;15.734;2022-12-07T09:23:36;6.75;;;5.53;;
44254;SDS011;29933;47.226;15.734;2022-12-07T09:26:02;8.38;;;5.90;;
44254;SDS011;29933;47.226;15.734;2022-12-07T09:28:32;8.60;;;5.13;;
44254;SDS011;29933;47.226;15.734;2022-12-07T09:30:58;9.35;;;6.00;;
44254;SDS011;29933;47.226;15.734;2022-12-07T09:33:24;12.75;;;8.85;;
44254;SDS011;29933;47.226;15.734;2022-12-07T09:35:51;9.52;;;7.10;;
44254;SDS011;29933;47.226;15.734;2022-12-07T09:38:17;11.63;;;9.70;;
44254;SDS011;29933;47.226;15.734;2022-12-07T09:40:45;11.35;;;8.75;;
44254;SDS011;29933;47.226;15.734;2022-12-07T09:43:15;15.90;;;10.85;;
44254;SDS011;29933;47.226;15.734;2022-12-07T09:45:45;19.17;;;12.05;;
44254;SDS011;29933;47.226;15.734;2022-12-07T09:48:16;22.80;;;14.13;;
44254;SDS011;29933;47.226;15.734;2022-12-07T09:50:55;19.90;;;11.68;;
44254;SDS011;29933;47.226;15.734;2022-12-07T09:55:57;15.65;;;9.52;;
44254;SDS011;29933;47.226;15.734;2022-12-07T09:58:25;14.50;;;10.73;;
44254;SDS011;29933;47.226;15.734;2022-12-07T10:00:55;13.48;;;8.95;;
44254;SDS011;29933;47.226;15.734;2022-12-07T10:03:51;10.90;;;7.82;;
44254;SDS011;29933;47.226;15.734;2022-12-07T10:06:34;15.45;;;8.50;;
44254;SDS011;29933;47.226;15.734;2022-12-07T10:09:00;8.65;;;6.95;;
44254;SDS011;29933;47.226;15.734;2022-12-07T10:11:27;9.38;;;7.60;;
44254;SDS011;29933;47.226;15.734;2022-12-07T10:13:53;13.38;;;8.57;;
44254;SDS011;29933;47.226;15.734;2022-12-07T10:19:17;14.18;;;9.10;;
44254;SDS011;29933;47.226;15.734;2022-12-07T10:24:35;12.48;;;8.75;;
44254;SDS011;29933;47.226;15.734;2022-12-07T10:27:04;14.00;;;9.30;;
44254;SDS011;29933;47.226;15.734;2022-12-07T10:32:00;24.15;;;13.57;;
44254;SDS011;29933;47.226;15.734;2022-12-07T10:34:38;17.77;;;9.80;;
44254;SDS011;29933;47.226;15.734;2022-12-07T10:39:43;11.20;;;8.18;;
44254;SDS011;29933;47.226;15.734;2022-12-07T10:44:46;11.43;;;7.57;;
44254;SDS011;29933;47.226;15.734;2022-12-07T10:56:25;5.40;;;4.88;;
44254;SDS011;29933;47.226;15.734;2022-12-07T10:59:00;7.93;;;3.92;;
44254;SDS011;29933;47.226;15.734;2022-12-07T11:01:50;6.53;;;5.37;;
44254;SDS011;29933;47.226;15.734;2022-12-07T11:05:09;4.80;;;4.40;;
44254;SDS011;29933;47.226;15.734;2022-12-07T11:10:44;9.05;;;4.82;;
44254;SDS011;29933;47.226;15.734;2022-12-07T11:13:52;7.55;;;5.20;;
44254;SDS011;29933;47.226;15.734;2022-12-07T11:31:08;8.07;;;4.40;;
44254;SDS011;29933;47.226;15.734;2022-12-07T11:37:02;6.43;;;4.72;;
44254;SDS011;29933;47.226;15.734;2022-12-07T11:39:39;13.60;;;5.57;;
44254;SDS011;29933;47.226;15.734;2022-12-07T11:48:02;5.60;;;5.10;;
44254;SDS011;29933;47.226;15.734;2022-12-07T11:55:50;7.63;;;5.20;;
44254;SDS011;29933;47.226;15.734;2022-12-07T12:01:50;5.80;;;4.22;;
44254;SDS011;29933;47.226;15.734;2022-12-07T12:07:11;7.88;;;4.75;;
44254;SDS011;29933;47.226;15.734;2022-12-07T12:09:52;6.35;;;4.90;;
44254;SDS011;29933;47.226;15.734;2022-12-07T12:21:37;5.30;;;4.03;;
44254;SDS011;29933;47.226;15.734;2022-12-07T12:24:05;5.75;;;4.22;;
44254;SDS011;29933;47.226;15.734;2022-12-07T12:26:48;5.40;;;4.88;;
44254;SDS011;29933;47.226;15.734;2022-12-07T12:29:21;6.07;;;4.72;;
44254;SDS011;29933;47.226;15.734;2022-12-07T12:33:01;5.53;;;4.15;;
44254;SDS011;29933;47.226;15.734;2022-12-07T12:40:59;5.60;;;4.28;;
44254;SDS011;29933;47.226;15.734;2022-12-07T12:43:43;5.68;;;4.47;;
44254;SDS011;29933;47.226;15.734;2022-12-07T12:54:59;5.65;;;5.15;;
44254;SDS011;29933;47.226;15.734;2022-12-07T12:57:32;5.80;;;5.10;;
44254;SDS011;29933;47.226;15.734;2022-12-07T12:59:59;5.50;;;4.13;;
44254;SDS011;29933;47.226;15.734;2022-12-07T13:02:29;5.60;;;4.38;;
44254;SDS011;29933;47.226;15.734;2022-12-07T13:13:02;5.10;;;4.50;;
44254;SDS011;29933;47.226;15.734;2022-12-07T13:15:49;7.22;;;5.93;;
44254;SDS011;29933;47.226;15.734;2022-12-07T13:18:27;5.53;;;4.63;;
44254;SDS011;29933;47.226;15.734;2022-12-07T13:36:54;4.63;;;3.67;;
44254;SDS011;29933;47.226;15.734;2022-12-07T13:39:22;5.53;;;4.50;;
44254;SDS011;29933;47.226;15.734;2022-12-07T13:41:54;6.13;;;5.13;;
44254;SDS011;29933;47.226;15.734;2022-12-07T13:44:23;6.05;;;5.07;;
44254;SDS011;29933;47.226;15.734;2022-12-07T13:50:02;6.25;;;3.90;;
44254;SDS011;29933;47.226;15.734;2022-12-07T13:52:57;4.63;;;4.22;;
44254;SDS011;29933;47.226;15.734;2022-12-07T13:55:25;5.68;;;5.10;;
44254;SDS011;29933;47.226;15.734;2022-12-07T13:57:52;4.63;;;4.22;;
44254;SDS011;29933;47.226;15.734;2022-12-07T14:00:21;4.95;;;4.45;;
44254;SDS011;29933;47.226;15.734;2022-12-07T14:02:58;4.65;;;4.25;;
44254;SDS011;29933;47.226;15.734;2022-12-07T14:05:26;5.05;;;4.57;;
44254;SDS011;29933;47.226;15.734;2022-12-07T14:07:59;7.47;;;5.30;;
44254;SDS011;29933;47.226;15.734;2022-12-07T14:15:59;5.95;;;4.20;;
44254;SDS011;29933;47.226;15.734;2022-12-07T14:18:50;8.52;;;4.95;;
44254;SDS011;29933;47.226;15.734;2022-12-07T14:21:18;6.43;;;4.20;;
44254;SDS011;29933;47.226;15.734;2022-12-07T14:26:34;4.97;;;4.43;;
44254;SDS011;29933;47.226;15.734;2022-12-07T14:29:19;7.28;;;4.85;;
44254;SDS011;29933;47.226;15.734;2022-12-07T14:31:59;5.78;;;4.25;;
44254;SDS011;29933;47.226;15.734;2022-12-07T14:34:52;9.93;;;4.90;;
44254;SDS011;29933;47.226;15.734;2022-12-07T14:37:23;6.20;;;4.18;;
44254;SDS011;29933;47.226;15.734;2022-12-07T14:39:50;8.25;;;4.53;;
44254;SDS011;29933;47.226;15.734;2022-12-07T14:42:23;5.85;;;4.13;;
44254;SDS011;29933;47.226;15.734;2022-12-07T14:44:53;4.88;;;3.72;;
44254;SDS011;29933;47.226;15.734;2022-12-07T14:47:20;5.13;;;3.50;;
44254;SDS011;29933;47.226;15.734;2022-12-07T14:49:46;5.35;;;4.65;;
44254;SDS011;29933;47.226;15.734;2022-12-07T14:52:13;6.47;;;4.55;;
44254;SDS011;29933;47.226;15.734;2022-12-07T14:54:44;5.65;;;4.25;;
44254;SDS011;29933;47.226;15.734;2022-12-07T14:57:10;5.88;;;4.00;;
44254;SDS011;29933;47.226;15.734;2022-12-07T14:59:36;4.68;;;3.78;;
44254;SDS011;29933;47.226;15.734;2022-12-07T15:02:03;4.88;;;3.85;;
44254;SDS011;29933;47.226;15.734;2022-12-07T15:04:30;6.38;;;4.00;;
44254;SDS011;29933;47.226;15.734;2022-12-07T15:06:59;5.30;;;3.80;;
44254;SDS011;29933;47.226;15.734;2022-12-07T15:09:28;6.68;;;4.55;;
44254;SDS011;29933;47.226;15.734;2022-12-07T15:11:54;6.15;;;4.05;;
44254;SDS011;29933;47.226;15.734;2022-12-07T15:14:20;5.38;;;4.28;;
44254;SDS011;29933;47.226;15.734;2022-12-07T15:16:46;8.65;;;4.13;;
44254;SDS011;29933;47.226;15.734;2022-12-07T15:19:13;5.43;;;3.88;;
44254;SDS011;29933;47.226;15.734;2022-12-07T15:21:41;2.90;;;2.50;;
44254;SDS011;29933;47.226;15.734;2022-12-07T15:24:08;3.78;;;2.90;;
44254;SDS011;29933;47.226;15.734;2022-12-07T15:26:36;3.15;;;2.75;;
44254;SDS011;29933;47.226;15.734;2022-12-07T15:29:04;3.45;;;3.15;;
44254;SDS011;29933;47.226;15.734;2022-12-07T15:31:31;2.88;;;2.63;;
44254;SDS011;29933;47.226;15.734;2022-12-07T15:33:57;3.50;;;2.78;;
44254;SDS011;29933;47.226;15.734;2022-12-07T15:36:24;4.20;;;2.85;;
44254;SDS011;29933;47.226;15.734;2022-12-07T15:38:53;5.40;;;3.63;;
44254;SDS011;29933;47.226;15.734;2022-12-07T15:41:19;6.90;;;3.72;;
44254;SDS011;29933;47.226;15.734;2022-12-07T15:43:45;4.97;;;3.75;;
44254;SDS011;29933;47.226;15.734;2022-12-07T15:46:30;4.45;;;4.05;;
44254;SDS011;29933;47.226;15.734;2022-12-07T15:49:03;4.45;;;3.97;;
44254;SDS011;29933;47.226;15.734;2022-12-07T15:51:38;3.55;;;2.50;;
44254;SDS011;29933;47.226;15.734;2022-12-07T15:54:04;4.85;;;3.60;;
44254;SDS011;29933;47.226;15.734;2022-12-07T15:56:30;6.00;;;4.10;;
44254;SDS011;29933;47.226;15.734;2022-12-07T15:58:56;5.15;;;3.78;;
44254;SDS011;29933;47.226;15.734;2022-12-07T16:01:22;3.70;;;3.30;;
44254;SDS011;29933;47.226;15.734;2022-12-07T16:03:48;5.68;;;3.75;;
44254;SDS011;29933;47.226;15.734;2022-12-07T16:06:17;3.70;;;3.33;;
44254;SDS011;29933;47.226;15.734;2022-12-07T16:08:44;4.63;;;3.08;;
44254;SDS011;29933;47.226;15.734;2022-12-07T16:11:11;4.13;;;3.72;;
44254;SDS011;29933;47.226;15.734;2022-12-07T16:13:38;6.20;;;4.47;;
44254;SDS011;29933;47.226;15.734;2022-12-07T16:16:08;6.18;;;4.68;;
44254;SDS011;29933;47.226;15.734;2022-12-07T16:18:37;5.38;;;3.92;;
44254;SDS011;29933;47.226;15.734;2022-12-07T16:21:03;7.57;;;5.00;;
44254;SDS011;29933;47.226;15.734;2022-12-07T16:23:29;5.88;;;4.90;;
44254;SDS011;29933;47.226;15.734;2022-12-07T16:26:06;6.78;;;4.53;;
44254;SDS011;29933;47.226;15.734;2022-12-07T16:28:45;7.00;;;5.25;;
44254;SDS011;29933;47.226;15.734;2022-12-07T16:31:15;5.32;;;4.68;;
44254;SDS011;29933;47.226;15.734;2022-12-07T16:33:46;7.30;;;6.10;;
44254;SDS011;29933;47.226;15.734;2022-12-07T16:36:12;9.55;;;6.63;;
44254;SDS011;29933;47.226;15.734;2022-12-07T16:38:41;12.00;;;8.07;;
44254;SDS011;29933;47.226;15.734;2022-12-07T16:41:07;18.05;;;7.90;;
44254;SDS011;29933;47.226;15.734;2022-12-07T16:43:34;16.33;;;9.98;;
44254;SDS011;29933;47.226;15.734;2022-12-07T16:46:00;18.27;;;9.45;;
44254;SDS011;29933;47.226;15.734;2022-12-07T16:48:27;17.15;;;9.60;;
44254;SDS011;29933;47.226;15.734;2022-12-07T16:50:53;16.17;;;9.73;;
44254;SDS011;29933;47.226;15.734;2022-12-07T16:53:19;21.27;;;12.48;;
44254;SDS011;29933;47.226;15.734;2022-12-07T16:55:47;17.38;;;10.75;;
44254;SDS011;29933;47.226;15.734;2022-12-07T16:58:14;19.35;;;11.85;;
44254;SDS011;29933;47.226;15.734;2022-12-07T17:00:41;15.93;;;10.63;;
44254;SDS011;29933;47.226;15.734;2022-12-07T17:03:09;14.40;;;9.95;;
44254;SDS011;29933;47.226;15.734;2022-12-07T17:05:39;25.42;;;12.75;;
44254;SDS011;29933;47.226;15.734;2022-12-07T17:08:07;22.60;;;11.27;;
44254;SDS011;29933;47.226;15.734;2022-12-07T17:10:34;19.42;;;11.15;;
44254;SDS011;29933;47.226;15.734;2022-12-07T17:13:03;22.10;;;12.20;;
44254;SDS011;29933;47.226;15.734;2022-12-07T17:16:09;16.85;;;9.35;;
44254;SDS011;29933;47.226;15.734;2022-12-07T17:18:35;12.05;;;8.18;;
44254;SDS011;29933;47.226;15.734;2022-12-07T17:21:05;11.32;;;9.05;;
44254;SDS011;29933;47.226;15.734;2022-12-07T17:23:33;13.52;;;8.98;;
44254;SDS011;29933;47.226;15.734;2022-12-07T17:26:08;10.15;;;6.95;;
44254;SDS011;29933;47.226;15.734;2022-12-07T17:28:43;19.13;;;8.63;;
44254;SDS011;29933;47.226;15.734;2022-12-07T17:31:10;15.20;;;7.75;;
44254;SDS011;29933;47.226;15.734;2022-12-07T17:33:38;12.45;;;6.95;;
44254;SDS011;29933;47.226;15.734;2022-12-07T17:36:11;11.93;;;7.53;;